createdAt,value
2018-05-12T00:00:58.051Z,14.40
2018-05-12T00:01:58.011Z,14.33
2018-05-12T00:02:57.967Z,14.36
2018-05-12T00:03:57.947Z,14.27
2018-05-12T00:04:57.888Z,14.24
2018-05-12T00:05:57.851Z,14.15
2018-05-12T00:06:57.819Z,14.17
2018-05-12T00:07:57.783Z,14.00
2018-05-12T00:08:57.763Z,13.99
2018-05-12T00:09:57.705Z,14.02
2018-05-12T00:10:57.669Z,13.99
2018-05-12T00:11:57.632Z,14.02
2018-05-12T00:12:57.595Z,13.99
2018-05-12T00:13:57.558Z,13.99
2018-05-12T00:14:57.562Z,13.92
2018-05-12T00:15:57.467Z,13.99
2018-05-12T00:16:57.441Z,13.96
2018-05-12T00:17:57.393Z,14.10
2018-05-12T00:18:57.360Z,14.09
2018-05-12T00:19:57.322Z,14.03
2018-05-12T00:20:57.311Z,14.12
2018-05-12T00:21:57.242Z,14.10
2018-05-12T00:22:57.208Z,14.12
2018-05-12T00:23:57.164Z,14.06
2018-05-12T00:24:57.131Z,14.03
2018-05-12T00:25:57.090Z,13.91
2018-05-12T00:26:57.075Z,13.99
2018-05-12T00:27:57.007Z,14.02
2018-05-12T00:28:56.974Z,13.95
2018-05-12T00:29:56.936Z,13.88
2018-05-12T00:30:56.903Z,13.84
2018-05-12T00:31:56.894Z,13.77
2018-05-12T00:32:56.825Z,13.66
2018-05-12T00:33:56.782Z,13.66
2018-05-12T00:34:56.744Z,13.69
2018-05-12T00:35:56.702Z,13.60
2018-05-12T00:36:56.692Z,13.57
2018-05-12T00:37:56.626Z,13.49
2018-05-12T00:38:56.591Z,13.51
2018-05-12T00:39:56.557Z,13.49
2018-05-12T00:40:56.504Z,13.46
2018-05-12T00:41:56.473Z,13.49
2018-05-12T00:42:56.491Z,13.42
2018-05-12T00:43:56.401Z,13.45
2018-05-12T00:44:56.363Z,13.30
2018-05-12T00:45:56.323Z,13.26
2018-05-12T00:46:56.283Z,13.26
2018-05-12T00:47:56.236Z,13.17
2018-05-12T00:49:06.947Z,13.19
2018-05-12T00:49:56.168Z,13.04
2018-05-12T00:50:56.133Z,13.11
2018-05-12T00:51:56.089Z,13.20
2018-05-12T00:52:56.057Z,13.12
2018-05-12T00:53:56.023Z,13.26
2018-05-12T00:54:55.976Z,13.33
2018-05-12T00:55:55.937Z,13.39
2018-05-12T00:56:55.895Z,13.38
2018-05-12T00:57:55.858Z,13.48
2018-05-12T00:58:55.838Z,13.41
2018-05-12T00:59:55.779Z,13.33
2018-05-12T01:00:55.742Z,13.41
2018-05-12T01:01:55.708Z,13.33
2018-05-12T01:02:55.669Z,13.36
2018-05-12T01:03:55.629Z,13.36
2018-05-12T01:04:55.607Z,13.29
2018-05-12T01:05:55.546Z,13.38
2018-05-12T01:06:55.501Z,13.36
2018-05-12T01:07:55.465Z,13.45
2018-05-12T01:08:55.428Z,13.51
2018-05-12T01:09:55.394Z,13.54
2018-05-12T01:10:55.379Z,13.55
2018-05-12T01:11:55.310Z,13.66
2018-05-12T01:12:55.273Z,13.63
2018-05-12T01:13:55.242Z,13.63
2018-05-12T01:14:55.201Z,13.71
2018-05-12T01:15:55.158Z,13.64
2018-05-12T01:16:55.136Z,13.66
2018-05-12T01:17:55.076Z,13.78
2018-05-12T01:18:55.041Z,13.91
2018-05-12T01:19:55.000Z,13.92
2018-05-12T01:20:54.961Z,13.95
2018-05-12T01:21:54.956Z,13.95
2018-05-12T01:22:54.896Z,14.07
2018-05-12T01:23:54.850Z,14.09
2018-05-12T01:24:54.806Z,14.10
2018-05-12T01:25:54.764Z,14.12
2018-05-12T01:26:54.732Z,14.07
2018-05-12T01:27:54.719Z,13.96
2018-05-12T01:28:54.649Z,13.92
2018-05-12T01:29:54.607Z,14.03
2018-05-12T01:30:54.573Z,13.99
2018-05-12T01:31:54.534Z,13.96
2018-05-12T01:32:54.501Z,13.88
2018-05-12T01:33:54.486Z,13.87
2018-05-12T01:34:54.425Z,13.77
2018-05-12T01:35:54.381Z,13.91
2018-05-12T01:36:54.337Z,13.92
2018-05-12T01:37:54.305Z,13.92
2018-05-12T01:38:54.286Z,13.96
2018-05-12T01:39:54.224Z,13.95
2018-05-12T01:40:54.185Z,13.96
2018-05-12T01:41:54.150Z,14.03
2018-05-12T01:42:54.109Z,13.97
2018-05-12T01:43:54.066Z,13.91
2018-05-12T01:44:54.061Z,13.81
2018-05-12T01:45:53.995Z,13.79
2018-05-12T01:46:53.955Z,13.59
2018-05-12T01:47:53.916Z,13.52
2018-05-12T01:48:53.871Z,13.52
2018-05-12T01:49:53.828Z,13.26
2018-05-12T01:50:53.812Z,13.28
2018-05-12T01:51:53.759Z,13.12
2018-05-12T01:52:53.720Z,13.07
2018-05-12T01:53:53.689Z,12.95
2018-05-12T01:54:53.645Z,12.96
2018-05-12T01:55:53.627Z,12.89
2018-05-12T01:56:53.568Z,12.87
2018-05-12T01:57:53.523Z,12.77
2018-05-12T01:58:53.492Z,12.77
2018-05-12T01:59:53.452Z,12.75
2018-05-12T02:00:53.430Z,12.95
2018-05-12T02:01:53.381Z,12.97
2018-05-12T02:02:53.324Z,13.07
2018-05-12T02:03:53.293Z,13.08
2018-05-12T02:04:53.251Z,13.23
2018-05-12T02:05:53.245Z,13.28
2018-05-12T02:06:53.177Z,13.26
2018-05-12T02:07:53.138Z,13.28
2018-05-12T02:08:53.090Z,13.28
2018-05-12T02:09:53.055Z,13.38
2018-05-12T02:10:53.040Z,13.45
2018-05-12T02:11:52.977Z,13.41
2018-05-12T02:12:52.941Z,13.44
2018-05-12T02:13:52.904Z,13.41
2018-05-12T02:14:52.855Z,13.33
2018-05-12T02:15:52.819Z,13.23
2018-05-12T02:16:52.809Z,13.17
2018-05-12T02:17:52.749Z,13.07
2018-05-12T02:18:52.736Z,13.00
2018-05-12T02:19:52.669Z,12.97
2018-05-12T02:20:52.626Z,12.83
2018-05-12T02:21:52.602Z,12.85
2018-05-12T02:22:52.546Z,12.87
2018-05-12T02:23:52.510Z,12.89
2018-05-12T02:24:52.473Z,12.86
2018-05-12T02:25:52.437Z,12.90
2018-05-12T02:26:52.426Z,13.08
2018-05-12T02:27:52.357Z,13.08
2018-05-12T02:28:52.311Z,13.03
2018-05-12T02:29:52.269Z,13.14
2018-05-12T02:30:52.240Z,13.15
2018-05-12T02:31:52.225Z,13.15
2018-05-12T02:32:52.161Z,13.12
2018-05-12T02:33:52.116Z,13.19
2018-05-12T02:34:52.071Z,13.17
2018-05-12T02:35:52.049Z,13.15
2018-05-12T02:36:52.025Z,13.07
2018-05-12T02:37:51.972Z,13.01
2018-05-12T02:38:51.930Z,13.04
2018-05-12T02:39:51.887Z,13.05
2018-05-12T02:40:51.843Z,13.10
2018-05-12T02:41:51.833Z,13.07
2018-05-12T02:42:51.762Z,13.03
2018-05-12T02:43:51.729Z,13.19
2018-05-12T02:44:51.700Z,13.15
2018-05-12T02:45:51.663Z,13.15
2018-05-12T02:46:51.635Z,13.19
2018-05-12T02:47:51.573Z,13.28
2018-05-12T02:49:01.988Z,13.51
2018-05-12T02:49:51.493Z,13.49
2018-05-12T02:50:51.453Z,13.52
2018-05-12T02:51:51.418Z,13.49
2018-05-12T02:52:51.409Z,13.51
2018-05-12T02:53:51.343Z,13.54
2018-05-12T02:54:51.288Z,13.57
2018-05-12T02:55:51.262Z,13.63
2018-05-12T02:56:51.222Z,13.57
2018-05-12T02:57:51.176Z,13.59
2018-05-12T02:58:51.169Z,13.60
2018-05-12T02:59:51.108Z,13.48
2018-05-12T03:00:51.065Z,13.48
2018-05-12T03:01:51.021Z,13.51
2018-05-12T03:02:50.995Z,13.54
2018-05-12T03:03:50.984Z,13.60
2018-05-12T03:04:50.912Z,13.51
2018-05-12T03:05:50.879Z,13.46
2018-05-12T03:06:50.920Z,13.38
2018-05-12T03:07:50.889Z,13.49
2018-05-12T03:08:50.749Z,13.46
2018-05-12T03:09:50.830Z,13.39
2018-05-12T03:10:50.781Z,13.33
2018-05-12T03:11:50.636Z,13.25
2018-05-12T03:12:50.602Z,13.12
2018-05-12T03:13:50.562Z,13.14
2018-05-12T03:14:50.534Z,13.03
2018-05-12T03:15:50.483Z,12.97
2018-05-12T03:16:50.443Z,12.89
2018-05-12T03:17:50.406Z,12.93
2018-05-12T03:18:50.354Z,12.86
2018-05-12T03:19:50.352Z,13.01
2018-05-12T03:20:50.279Z,12.97
2018-05-12T03:21:50.239Z,12.90
2018-05-12T03:22:50.215Z,12.97
2018-05-12T03:23:50.171Z,12.97
2018-05-12T03:24:50.156Z,12.90
2018-05-12T03:25:50.099Z,12.87
2018-05-12T03:26:50.047Z,12.83
2018-05-12T03:27:50.009Z,12.97
2018-05-12T03:28:49.965Z,12.85
2018-05-12T03:29:49.952Z,12.85
2018-05-12T03:30:49.898Z,12.85
2018-05-12T03:31:49.856Z,12.83
2018-05-12T03:32:49.812Z,12.83
2018-05-12T03:33:49.774Z,12.72
2018-05-12T03:34:49.740Z,12.74
2018-05-12T03:35:49.725Z,12.72
2018-05-12T03:36:49.672Z,12.52
2018-05-12T03:37:49.629Z,12.56
2018-05-12T03:38:49.574Z,12.46
2018-05-12T03:39:49.543Z,12.38
2018-05-12T03:40:49.500Z,12.39
2018-05-12T03:41:49.479Z,12.31
2018-05-12T03:42:49.427Z,12.32
2018-05-12T03:43:49.388Z,12.35
2018-05-12T03:44:49.353Z,12.27
2018-05-12T03:45:49.309Z,12.31
2018-05-12T03:46:49.290Z,12.19
2018-05-12T03:47:49.225Z,12.14
2018-05-12T03:48:49.185Z,12.12
2018-05-12T03:49:49.156Z,12.17
2018-05-12T03:50:49.103Z,12.19
2018-05-12T03:51:49.091Z,12.12
2018-05-12T03:52:49.026Z,12.13
2018-05-12T03:53:48.988Z,11.98
2018-05-12T03:54:48.959Z,11.99
2018-05-12T03:55:48.914Z,12.02
2018-05-12T03:56:48.898Z,12.05
2018-05-12T03:57:48.840Z,12.02
2018-05-12T03:58:48.789Z,12.01
2018-05-12T04:00:00.071Z,12.02
2018-05-12T04:00:48.720Z,12.19
2018-05-12T04:01:48.708Z,12.14
2018-05-12T04:02:48.635Z,12.19
2018-05-12T04:03:48.592Z,12.29
2018-05-12T04:04:48.568Z,12.31
2018-05-12T04:05:48.525Z,12.32
2018-05-12T04:06:48.483Z,12.45
2018-05-12T04:07:48.481Z,12.41
2018-05-12T04:08:48.393Z,12.49
2018-05-12T04:09:48.362Z,12.54
2018-05-12T04:10:48.324Z,12.65
2018-05-12T04:11:48.277Z,12.62
2018-05-12T04:12:48.251Z,12.70
2018-05-12T04:13:48.229Z,12.87
2018-05-12T04:14:48.166Z,12.87
2018-05-12T04:15:48.137Z,12.93
2018-05-12T04:16:48.086Z,13.01
2018-05-12T04:17:48.046Z,13.10
2018-05-12T04:18:48.036Z,13.25
2018-05-12T04:19:47.987Z,13.45
2018-05-12T04:20:47.927Z,13.59
2018-05-12T04:21:47.892Z,13.67
2018-05-12T04:22:47.856Z,13.81
2018-05-12T04:23:57.559Z,13.92
2018-05-12T04:24:47.778Z,13.96
2018-05-12T04:25:47.745Z,14.10
2018-05-12T04:26:47.694Z,14.09
2018-05-12T04:27:47.671Z,14.28
2018-05-12T04:28:47.621Z,14.43
2018-05-12T04:29:47.605Z,14.55
2018-05-12T04:30:47.551Z,14.62
2018-05-12T04:31:47.507Z,14.73
2018-05-12T04:32:47.464Z,14.64
2018-05-12T04:33:47.425Z,14.75
2018-05-12T04:34:47.424Z,14.73
2018-05-12T04:35:47.348Z,14.86
2018-05-12T04:36:47.310Z,14.95
2018-05-12T04:37:47.280Z,14.89
2018-05-12T04:38:47.230Z,15.09
2018-05-12T04:39:47.198Z,15.09
2018-05-12T04:40:47.177Z,15.16
2018-05-12T04:41:47.119Z,15.11
2018-05-12T04:42:47.086Z,15.11
2018-05-12T04:43:47.040Z,15.01
2018-05-12T04:44:47.005Z,15.07
2018-05-12T04:45:47.010Z,15.03
2018-05-12T04:46:57.077Z,15.10
2018-05-12T04:47:46.889Z,15.11
2018-05-12T04:48:46.842Z,15.27
2018-05-12T04:49:46.810Z,15.25
2018-05-12T04:50:46.770Z,15.29
2018-05-12T04:51:46.749Z,15.31
2018-05-12T04:52:46.699Z,15.41
2018-05-12T04:53:46.657Z,15.49
2018-05-12T04:54:46.618Z,15.51
2018-05-12T04:55:46.585Z,15.64
2018-05-12T04:56:46.562Z,15.76
2018-05-12T04:57:46.501Z,15.94
2018-05-12T04:58:46.462Z,16.41
2018-05-12T04:59:46.419Z,16.45
2018-05-12T05:00:46.395Z,16.89
2018-05-12T05:01:46.357Z,17.28
2018-05-12T05:02:46.336Z,17.78
2018-05-12T05:03:46.269Z,18.37
2018-05-12T05:04:46.243Z,18.75
2018-05-12T05:05:46.196Z,18.73
2018-05-12T05:06:46.161Z,18.95
2018-05-12T05:07:46.126Z,19.00
2018-05-12T05:08:46.103Z,19.11
2018-05-12T05:09:46.045Z,19.21
2018-05-12T05:10:46.010Z,19.22
2018-05-12T05:11:45.971Z,19.50
2018-05-12T05:12:45.942Z,19.80
2018-05-12T05:13:45.928Z,19.95
2018-05-12T05:14:45.861Z,19.84
2018-05-12T05:15:45.827Z,19.41
2018-05-12T05:16:45.783Z,19.28
2018-05-12T05:17:45.749Z,19.21
2018-05-12T05:18:45.724Z,19.22
2018-05-12T05:19:57.609Z,19.36
2018-05-12T05:20:45.637Z,19.39
2018-05-12T05:21:45.599Z,19.46
2018-05-12T05:22:45.584Z,19.58
2018-05-12T05:23:45.542Z,19.71
2018-05-12T05:24:45.527Z,19.80
2018-05-12T05:25:45.463Z,20.17
2018-05-12T05:26:45.418Z,20.76
2018-05-12T05:27:45.381Z,20.91
2018-05-12T05:28:45.347Z,21.16
2018-05-12T05:29:45.310Z,21.21
2018-05-12T05:30:45.313Z,21.14
2018-05-12T05:31:45.238Z,21.40
2018-05-12T05:32:45.206Z,21.53
2018-05-12T05:33:55.629Z,20.99
2018-05-12T05:34:45.133Z,20.08
2018-05-12T05:35:45.106Z,19.91
2018-05-12T05:36:45.082Z,19.69
2018-05-12T05:37:45.026Z,19.77
2018-05-12T05:38:44.985Z,19.80
2018-05-12T05:39:44.951Z,20.28
2018-05-12T05:40:44.920Z,20.94
2018-05-12T05:41:45.030Z,21.31
2018-05-12T05:42:44.846Z,21.07
2018-05-12T05:43:44.814Z,20.94
2018-05-12T05:44:44.768Z,20.54
2018-05-12T05:45:44.741Z,20.84
2018-05-12T05:46:44.723Z,21.19
2018-05-12T05:47:44.672Z,22.00
2018-05-12T05:48:44.631Z,22.60
2018-05-12T05:49:44.600Z,23.05
2018-05-12T05:50:44.564Z,23.73
2018-05-12T05:51:44.542Z,23.72
2018-05-12T05:52:44.489Z,24.32
2018-05-12T05:53:44.455Z,24.37
2018-05-12T05:54:44.425Z,23.43
2018-05-12T05:55:44.388Z,23.12
2018-05-12T05:56:44.367Z,22.36
2018-05-12T05:57:44.308Z,22.52
2018-05-12T05:58:44.273Z,23.39
2018-05-12T05:59:44.241Z,23.63
2018-05-12T06:00:44.211Z,22.83
2018-05-12T06:01:44.181Z,23.19
2018-05-12T06:02:44.166Z,22.37
2018-05-12T06:03:44.102Z,22.64
2018-05-12T06:04:44.074Z,23.19
2018-05-12T06:05:44.034Z,22.80
2018-05-12T06:06:44.060Z,23.60
2018-05-12T06:07:43.997Z,23.23
2018-05-12T06:08:43.931Z,24.08
2018-05-12T06:09:43.903Z,24.22
2018-05-12T06:10:43.860Z,25.00
2018-05-12T06:11:43.833Z,25.92
2018-05-12T06:12:43.797Z,26.63
2018-05-12T06:13:43.795Z,26.55
2018-05-12T06:14:43.727Z,25.43
2018-05-12T06:15:43.696Z,25.83
2018-05-12T06:16:43.652Z,26.32
2018-05-12T06:17:43.627Z,25.43
2018-05-12T06:18:43.626Z,26.30
2018-05-12T06:19:43.568Z,26.57
2018-05-12T06:20:43.522Z,26.50
2018-05-12T06:21:43.493Z,26.77
2018-05-12T06:22:43.461Z,25.60
2018-05-12T06:23:43.455Z,25.75
2018-05-12T06:24:43.402Z,26.30
2018-05-12T06:25:43.366Z,27.00
2018-05-12T06:26:43.328Z,26.95
2018-05-12T06:27:43.304Z,26.97
2018-05-12T06:28:43.289Z,27.13
2018-05-12T06:29:43.228Z,26.29
2018-05-12T06:30:43.201Z,26.10
2018-05-12T06:31:43.165Z,25.94
2018-05-12T06:32:43.138Z,25.79
2018-05-12T06:33:43.128Z,26.55
2018-05-12T06:34:43.067Z,26.87
2018-05-12T06:35:43.030Z,27.55
2018-05-12T06:36:43.010Z,27.18
2018-05-12T06:37:42.977Z,27.54
2018-05-12T06:38:42.969Z,27.67
2018-05-12T06:39:42.917Z,28.46
2018-05-12T06:40:42.869Z,28.70
2018-05-12T06:41:42.844Z,27.51
2018-05-12T06:42:42.812Z,26.97
2018-05-12T06:43:42.807Z,27.19
2018-05-12T06:44:42.755Z,28.02
2018-05-12T06:45:42.720Z,27.54
2018-05-12T06:46:42.712Z,28.03
2018-05-12T06:47:42.665Z,28.04
2018-05-12T06:48:42.643Z,27.14
2018-05-12T06:49:42.589Z,27.94
2018-05-12T06:50:42.562Z,28.36
2018-05-12T06:51:42.533Z,28.33
2018-05-12T06:52:42.501Z,27.28
2018-05-12T06:53:42.492Z,27.90
2018-05-12T06:54:42.438Z,28.00
2018-05-12T06:55:42.401Z,27.19
2018-05-12T06:56:42.374Z,27.50
2018-05-12T06:57:42.345Z,27.59
2018-05-12T06:58:42.336Z,27.75
2018-05-12T06:59:42.280Z,27.41
2018-05-12T07:00:42.243Z,28.19
2018-05-12T07:01:42.211Z,28.12
2018-05-12T07:02:42.178Z,27.40
2018-05-12T07:03:42.175Z,27.43
2018-05-12T07:04:42.117Z,26.91
2018-05-12T07:05:42.094Z,26.39
2018-05-12T07:06:42.053Z,25.79
2018-05-12T07:07:42.044Z,25.94
2018-05-12T07:08:42.015Z,26.43
2018-05-12T07:09:41.975Z,26.35
2018-05-12T07:10:41.938Z,27.17
2018-05-12T07:11:41.902Z,28.02
2018-05-12T07:12:41.864Z,28.90
2018-05-12T07:13:41.856Z,29.61
2018-05-12T07:14:41.797Z,30.31
2018-05-12T07:15:41.775Z,30.43
2018-05-12T07:16:41.745Z,29.55
2018-05-12T07:17:41.717Z,28.93
2018-05-12T07:18:41.710Z,29.21
2018-05-12T07:19:41.651Z,28.14
2018-05-12T07:20:41.614Z,27.93
2018-05-12T07:21:41.582Z,27.72
2018-05-12T07:22:41.560Z,26.60
2018-05-12T07:23:41.552Z,27.14
2018-05-12T07:24:41.489Z,27.74
2018-05-12T07:25:41.456Z,27.67
2018-05-12T07:26:41.431Z,26.32
2018-05-12T07:27:41.405Z,26.01
2018-05-12T07:28:41.395Z,26.30
2018-05-12T07:29:41.433Z,26.39
2018-05-12T07:30:41.312Z,26.70
2018-05-12T07:31:41.278Z,26.63
2018-05-12T07:32:41.245Z,25.45
2018-05-12T07:33:41.233Z,26.18
2018-05-12T07:34:41.179Z,27.12
2018-05-12T07:35:41.152Z,27.47
2018-05-12T07:36:41.146Z,28.04
2018-05-12T07:37:41.100Z,28.37
2018-05-12T07:38:41.083Z,28.90
2018-05-12T07:39:41.032Z,29.02
2018-05-12T07:40:40.998Z,28.77
2018-05-12T07:41:40.979Z,28.55
2018-05-12T07:42:40.941Z,28.55
2018-05-12T07:43:40.937Z,28.48
2018-05-12T07:44:40.879Z,28.46
2018-05-12T07:45:40.843Z,27.93
2018-05-12T07:46:40.834Z,27.75
2018-05-12T07:47:40.785Z,27.69
2018-05-12T07:48:40.859Z,27.32
2018-05-12T07:49:40.737Z,27.43
2018-05-12T07:50:40.701Z,27.25
2018-05-12T07:51:40.667Z,27.59
2018-05-12T07:52:40.633Z,27.93
2018-05-12T07:53:40.681Z,27.09
2018-05-12T07:54:41.218Z,27.21
2018-05-12T07:55:40.547Z,28.00
2018-05-12T07:56:40.514Z,28.21
2018-05-12T07:57:40.504Z,28.31
2018-05-12T07:58:40.468Z,29.09
2018-05-12T07:59:40.421Z,28.52
2018-05-12T08:00:40.390Z,28.78
2018-05-12T08:01:40.365Z,29.33
2018-05-12T08:02:40.336Z,29.21
2018-05-12T08:03:40.326Z,28.89
2018-05-12T08:04:40.269Z,28.52
2018-05-12T08:05:40.233Z,27.59
2018-05-12T08:06:40.209Z,27.50
2018-05-12T08:07:40.179Z,26.54
2018-05-12T08:08:40.179Z,27.19
2018-05-12T08:09:40.134Z,27.43
2018-05-12T08:10:40.094Z,27.44
2018-05-12T08:11:40.080Z,27.57
2018-05-12T08:12:40.047Z,27.62
2018-05-12T08:13:40.039Z,28.39
2018-05-12T08:14:40.001Z,28.67
2018-05-12T08:15:39.950Z,27.88
2018-05-12T08:16:39.926Z,27.06
2018-05-12T08:17:39.884Z,26.63
2018-05-12T08:18:39.870Z,26.51
2018-05-12T08:19:39.852Z,27.41
2018-05-12T08:20:39.818Z,27.93
2018-05-12T08:21:39.787Z,27.90
2018-05-12T08:22:39.755Z,27.62
2018-05-12T08:23:39.750Z,27.92
2018-05-12T08:24:39.710Z,27.19
2018-05-12T08:25:39.648Z,26.48
2018-05-12T08:26:39.682Z,26.21
2018-05-12T08:27:39.596Z,27.00
2018-05-12T08:28:39.566Z,27.51
2018-05-12T08:29:39.562Z,28.03
2018-05-12T08:30:39.511Z,28.14
2018-05-12T08:31:39.559Z,26.92
2018-05-12T08:32:39.454Z,27.36
2018-05-12T08:33:39.436Z,27.29
2018-05-12T08:34:39.437Z,27.99
2018-05-12T08:35:39.513Z,27.55
2018-05-12T08:36:39.595Z,27.41
2018-05-12T08:37:39.308Z,27.88
2018-05-12T08:38:39.277Z,28.31
2018-05-12T08:39:49.255Z,28.25
2018-05-12T08:40:39.220Z,28.54
2018-05-12T08:41:39.199Z,28.77
2018-05-12T08:42:39.183Z,29.37
2018-05-12T08:43:39.153Z,28.89
2018-05-12T08:44:39.143Z,28.14
2018-05-12T08:45:39.151Z,27.93
2018-05-12T08:46:39.058Z,27.82
2018-05-12T08:47:39.021Z,28.34
2018-05-12T08:48:38.999Z,28.67
2018-05-12T08:49:39.024Z,29.00
2018-05-12T08:50:38.944Z,29.24
2018-05-12T08:51:38.940Z,28.93
2018-05-12T08:52:38.909Z,28.51
2018-05-12T08:53:38.862Z,27.97
2018-05-12T08:54:38.857Z,27.63
2018-05-12T08:55:38.916Z,27.97
2018-05-12T08:56:38.811Z,27.75
2018-05-12T08:57:38.760Z,28.34
2018-05-12T08:58:38.721Z,28.27
2018-05-12T08:59:38.841Z,28.41
2018-05-12T09:00:38.663Z,27.59
2018-05-12T09:01:38.641Z,26.99
2018-05-12T09:02:38.613Z,27.09
2018-05-12T09:03:38.586Z,26.88
2018-05-12T09:04:38.596Z,26.97
2018-05-12T09:05:38.567Z,27.39
2018-05-12T09:06:38.498Z,27.09
2018-05-12T09:07:38.468Z,26.89
2018-05-12T09:08:38.433Z,26.80
2018-05-12T09:09:38.414Z,26.84
2018-05-12T09:10:38.418Z,26.76
2018-05-12T09:11:38.361Z,26.77
2018-05-12T09:12:38.325Z,26.92
2018-05-12T09:13:38.298Z,27.13
2018-05-12T09:14:38.276Z,27.74
2018-05-12T09:15:38.250Z,28.36
2018-05-12T09:16:38.244Z,29.00
2018-05-12T09:17:38.190Z,28.56
2018-05-12T09:18:38.224Z,28.77
2018-05-12T09:19:38.147Z,27.82
2018-05-12T09:20:38.122Z,27.18
2018-05-12T09:21:38.101Z,26.63
2018-05-12T09:22:38.062Z,27.03
2018-05-12T09:23:38.028Z,27.63
2018-05-12T09:24:38.000Z,28.30
2018-05-12T09:25:38.041Z,28.81
2018-05-12T09:26:37.969Z,28.93
2018-05-12T09:27:37.952Z,28.90
2018-05-12T09:28:37.894Z,28.90
2018-05-12T09:29:37.860Z,28.98
2018-05-12T09:30:37.825Z,28.98
2018-05-12T09:31:37.794Z,29.11
2018-05-12T09:32:37.794Z,29.30
2018-05-12T09:33:37.748Z,28.90
2018-05-12T09:34:37.719Z,27.82
2018-05-12T09:35:37.705Z,27.28
2018-05-12T09:36:37.677Z,27.49
2018-05-12T09:37:37.639Z,27.74
2018-05-12T09:38:37.634Z,27.97
2018-05-12T09:39:37.604Z,28.04
2018-05-12T09:40:37.548Z,27.94
2018-05-12T09:41:37.534Z,28.17
2018-05-12T09:42:37.582Z,28.41
2018-05-12T09:43:37.509Z,28.44
2018-05-12T09:44:37.441Z,28.11
2018-05-12T09:45:37.418Z,27.72
2018-05-12T09:46:37.401Z,27.90
2018-05-12T09:47:37.377Z,28.30
2018-05-12T09:48:37.348Z,27.72
2018-05-12T09:49:37.336Z,27.06
2018-05-12T09:50:47.885Z,27.04
2018-05-12T09:51:37.714Z,27.27
2018-05-12T09:52:37.241Z,27.50
2018-05-12T09:53:37.222Z,27.74
2018-05-12T09:54:37.227Z,27.78
2018-05-12T09:55:37.151Z,27.44
2018-05-12T09:56:37.130Z,27.18
2018-05-12T09:57:37.092Z,26.87
2018-05-12T09:58:37.078Z,26.57
2018-05-12T09:59:37.129Z,26.23
2018-05-12T10:00:37.010Z,26.10
2018-05-12T10:01:36.985Z,25.67
2018-05-12T10:02:36.958Z,25.79
2018-05-12T10:03:36.926Z,25.76
2018-05-12T10:04:36.940Z,26.30
2018-05-12T10:05:36.882Z,26.60
2018-05-12T10:06:36.853Z,26.95
2018-05-12T10:07:36.841Z,26.87
2018-05-12T10:08:36.788Z,26.88
2018-05-12T10:09:36.794Z,26.67
2018-05-12T10:10:36.742Z,26.66
2018-05-12T10:11:36.700Z,26.52
2018-05-12T10:12:36.680Z,26.94
2018-05-12T10:13:36.666Z,27.44
2018-05-12T10:14:46.319Z,26.94
2018-05-12T10:15:36.624Z,27.55
2018-05-12T10:16:36.575Z,27.77
2018-05-12T10:17:36.531Z,27.72
2018-05-12T10:18:36.503Z,27.54
2018-05-12T10:19:36.476Z,27.51
2018-05-12T10:20:36.468Z,27.77
2018-05-12T10:21:36.421Z,27.51
2018-05-12T10:22:36.395Z,27.19
2018-05-12T10:23:36.377Z,27.24
2018-05-12T10:24:36.346Z,27.25
2018-05-12T10:25:36.344Z,27.66
2018-05-12T10:26:36.289Z,28.09
2018-05-12T10:27:36.279Z,27.88
2018-05-12T10:28:36.235Z,27.93
2018-05-12T10:29:36.211Z,28.15
2018-05-12T10:30:36.210Z,27.72
2018-05-12T10:31:36.170Z,27.65
2018-05-12T10:32:36.125Z,27.66
2018-05-12T10:33:36.094Z,27.55
2018-05-12T10:34:36.073Z,27.37
2018-05-12T10:35:36.058Z,26.89
2018-05-12T10:36:36.022Z,26.97
2018-05-12T10:37:36.015Z,26.92
2018-05-12T10:38:35.959Z,27.07
2018-05-12T10:39:35.931Z,26.70
2018-05-12T10:40:46.349Z,26.73
2018-05-12T10:41:35.884Z,26.67
2018-05-12T10:42:35.884Z,26.20
2018-05-12T10:43:35.827Z,25.92
2018-05-12T10:44:35.799Z,26.39
2018-05-12T10:45:35.781Z,26.85
2018-05-12T10:46:35.756Z,26.54
2018-05-12T10:47:35.750Z,26.94
2018-05-12T10:48:35.699Z,27.17
2018-05-12T10:49:35.662Z,27.24
2018-05-12T10:50:35.635Z,26.99
2018-05-12T10:51:35.626Z,26.25
2018-05-12T10:52:35.613Z,26.15
2018-05-12T10:53:35.833Z,26.39
2018-05-12T10:54:35.543Z,26.28
2018-05-12T10:55:35.506Z,26.26
2018-05-12T10:56:35.480Z,25.97
2018-05-12T10:57:35.456Z,25.79
2018-05-12T10:58:35.468Z,25.60
2018-05-12T10:59:35.410Z,25.76
2018-05-12T11:00:35.365Z,25.43
2018-05-12T11:01:35.336Z,25.38
2018-05-12T11:02:35.334Z,25.51
2018-05-12T11:03:35.288Z,25.57
2018-05-12T11:04:44.895Z,25.21
2018-05-12T11:05:35.237Z,25.36
2018-05-12T11:06:35.206Z,25.95
2018-05-12T11:07:35.190Z,25.79
2018-05-12T11:08:35.152Z,26.06
2018-05-12T11:09:35.217Z,26.54
2018-05-12T11:10:35.091Z,26.39
2018-05-12T11:11:35.058Z,26.50
2018-05-12T11:12:35.042Z,26.51
2018-05-12T11:13:35.008Z,26.70
2018-05-12T11:14:34.982Z,26.67
2018-05-12T11:15:34.970Z,26.43
2018-05-12T11:16:34.935Z,26.35
2018-05-12T11:17:34.896Z,26.60
2018-05-12T11:18:34.869Z,26.69
2018-05-12T11:19:34.863Z,26.55
2018-05-12T11:20:34.848Z,26.48
2018-05-12T11:21:34.828Z,26.52
2018-05-12T11:22:34.759Z,26.44
2018-05-12T11:23:34.736Z,26.40
2018-05-12T11:24:34.711Z,26.20
2018-05-12T11:25:34.740Z,25.42
2018-05-12T11:26:34.768Z,24.99
2018-05-12T11:27:34.637Z,25.20
2018-05-12T11:28:34.594Z,25.25
2018-05-12T11:29:34.604Z,25.62
2018-05-12T11:30:34.556Z,25.97
2018-05-12T11:31:34.527Z,25.85
2018-05-12T11:32:34.507Z,26.20
2018-05-12T11:33:34.481Z,25.98
2018-05-12T11:34:34.434Z,25.69
2018-05-12T11:35:34.434Z,25.90
2018-05-12T11:36:34.378Z,25.61
2018-05-12T11:37:34.360Z,25.99
2018-05-12T11:38:34.338Z,26.28
2018-05-12T11:39:34.314Z,26.37
2018-05-12T11:40:34.311Z,26.55
2018-05-12T11:41:34.256Z,26.89
2018-05-12T11:42:34.228Z,26.81
2018-05-12T11:43:34.192Z,26.51
2018-05-12T11:44:34.282Z,26.47
2018-05-12T11:45:34.168Z,26.35
2018-05-12T11:46:34.111Z,26.25
2018-05-12T11:47:34.087Z,26.36
2018-05-12T11:48:34.055Z,26.39
2018-05-12T11:49:34.109Z,26.10
2018-05-12T11:50:34.029Z,26.17
2018-05-12T11:51:33.987Z,26.05
2018-05-12T11:52:33.969Z,26.07
2018-05-12T11:53:33.932Z,25.87
2018-05-12T11:54:33.904Z,25.61
2018-05-12T11:55:33.890Z,25.76
2018-05-12T11:56:33.837Z,25.92
2018-05-12T11:57:33.813Z,25.82
2018-05-12T11:58:33.787Z,25.62
2018-05-12T11:59:33.774Z,25.33
2018-05-12T12:00:33.727Z,25.54
2018-05-12T12:01:33.757Z,25.76
2018-05-12T12:02:33.782Z,25.76
2018-05-12T12:03:33.659Z,25.82
2018-05-12T12:04:33.624Z,26.07
2018-05-12T12:05:33.591Z,26.15
2018-05-12T12:06:33.565Z,25.90
2018-05-12T12:07:33.553Z,25.95
2018-05-12T12:08:33.504Z,26.20
2018-05-12T12:09:33.485Z,26.35
2018-05-12T12:10:33.453Z,26.39
2018-05-12T12:11:33.430Z,26.62
2018-05-12T12:12:33.424Z,26.18
2018-05-12T12:13:33.369Z,25.46
2018-05-12T12:14:33.339Z,25.62
2018-05-12T12:15:33.327Z,25.72
2018-05-12T12:16:33.348Z,25.94
2018-05-12T12:17:33.285Z,25.94
2018-05-12T12:18:33.233Z,25.98
2018-05-12T12:19:33.196Z,26.37
2018-05-12T12:20:33.166Z,26.43
2018-05-12T12:21:33.152Z,26.48
2018-05-12T12:22:33.120Z,26.33
2018-05-12T12:23:33.124Z,26.44
2018-05-12T12:24:33.070Z,26.51
2018-05-12T12:25:33.041Z,26.47
2018-05-12T12:26:33.012Z,26.09
2018-05-12T12:27:32.979Z,25.87
2018-05-12T12:28:32.950Z,25.75
2018-05-12T12:29:32.959Z,25.80
2018-05-12T12:30:32.904Z,25.82
2018-05-12T12:31:32.884Z,25.95
2018-05-12T12:32:32.840Z,25.75
2018-05-12T12:33:32.827Z,25.58
2018-05-12T12:34:32.798Z,25.77
2018-05-12T12:35:32.795Z,25.87
2018-05-12T12:36:32.742Z,25.83
2018-05-12T12:37:32.713Z,25.94
2018-05-12T12:38:32.680Z,25.87
2018-05-12T12:39:42.463Z,25.95
2018-05-12T12:40:32.627Z,25.85
2018-05-12T12:41:32.603Z,26.09
2018-05-12T12:42:32.578Z,26.17
2018-05-12T12:43:32.545Z,25.95
2018-05-12T12:44:32.542Z,25.76
2018-05-12T12:45:32.555Z,25.77
2018-05-12T12:46:32.461Z,25.90
2018-05-12T12:47:32.432Z,25.80
2018-05-12T12:48:32.406Z,25.67
2018-05-12T12:49:32.371Z,25.83
2018-05-12T12:50:32.369Z,25.83
2018-05-12T12:51:32.324Z,25.77
2018-05-12T12:52:32.379Z,25.83